< < Back
Terminal Aerodrome Forecast


Current Version              Previous Versions:   1  2  3  4  5  6  7  8  9  

Terminal Aerodrome Forecast

107
FTUS42 KCAE 272350
TAFAGS
TAF
KAGS 272350Z 2800/2824 22008KT P6SM SCT060
     FM280300 VRB05KT P6SM SKC
     FM281300 25007KT P6SM FEW250
     FM281800 25010G15KT P6SM SCT060=

Latest METAR

319
SAUS70 KWBC 280600 RRF
MTRAGS
METAR KAGS 280553Z AUTO 24006KT 10SM CLR 28/21 A2999 RMK AO2 SLP155
T02780211 10339 20272 51006


USA.gov is the U.S. government's official web portal to all federal, state and local government web resources and services.